Time;durP1;ratioP1;P1;durP2;ratioP2;P2;SDS_P1;SDS_P2;PMS_P1;PMS_P2;Temp;Humidity;BMP_temperature;BMP_pressure;BME280_temperature;BME280_humidity;BME280_pressure;Samples;Min_cycle;Max_cycle;Signal;HPM_P1;HPM_P2
2020/12/18 00:01:28;;;;;;;59.53;28.00;;;;;;;3.73;97.04;100470.09;1767918;81;21565;-58
2020/12/18 00:03:56;;;;;;;60.55;27.48;;;;;;;3.74;96.91;100479.95;1767905;81;21152;-58
2020/12/18 00:06:25;;;;;;;63.68;28.57;;;;;;;3.75;96.73;100484.25;1769580;80;21171;-59
2020/12/18 00:08:53;;;;;;;64.85;28.02;;;;;;;3.73;96.68;100479.09;1790449;80;21057;-58
2020/12/18 00:11:25;;;;;;;62.58;28.60;;;;;;;3.75;96.64;100486.83;1790542;80;21483;-58
2020/12/18 00:13:53;;;;;;;64.67;28.45;;;;;;;3.72;96.60;100482.52;1790519;80;21512;-58
2020/12/18 00:16:22;;;;;;;61.28;28.25;;;;;;;3.73;96.58;100483.38;1790298;80;21048;-58
2020/12/18 00:18:50;;;;;;;66.42;29.05;;;;;;;3.72;96.45;100482.95;1790467;80;21052;-58
2020/12/18 00:21:20;;;;;;;60.03;27.42;;;;;;;3.70;96.46;100482.90;1790575;80;21136;-58
2020/12/18 00:23:48;;;;;;;65.40;29.85;;;;;;;3.72;96.56;100481.23;1790595;80;22253;-58
2020/12/18 00:26:16;;;;;;;63.38;28.07;;;;;;;3.72;96.55;100477.80;1790411;80;21130;-58
2020/12/18 00:28:45;;;;;;;66.10;28.35;;;;;;;3.73;96.50;100470.09;1790457;80;21150;-58
2020/12/18 00:31:13;;;;;;;65.15;28.65;;;;;;;3.73;96.37;100468.81;1790491;80;21059;-58
2020/12/18 00:33:41;;;;;;;67.72;30.27;;;;;;;3.72;96.34;100476.52;1790472;80;21508;-58
2020/12/18 00:36:12;;;;;;;68.47;29.63;;;;;;;3.72;96.44;100472.23;1790487;80;21120;-58
2020/12/18 00:38:40;;;;;;;65.60;28.67;;;;;;;3.72;96.40;100468.80;1790473;80;21489;-60
2020/12/18 00:41:07;;;;;;;61.02;28.65;;;;;;;3.71;96.36;100476.08;1790496;80;21560;-58
2020/12/18 00:43:35;;;;;;;67.32;29.37;;;;;;;3.71;96.37;100479.94;1790594;80;21591;-58
2020/12/18 00:46:05;;;;;;;66.53;28.92;;;;;;;3.72;96.31;100489.38;1790446;80;21151;-58
2020/12/18 00:48:32;;;;;;;66.62;28.70;;;;;;;3.70;96.40;100489.33;1790549;80;21353;-58
2020/12/18 00:51:01;;;;;;;66.95;27.95;;;;;;;3.69;96.41;100491.47;1788932;80;21123;-57
2020/12/18 00:53:29;;;;;;;64.90;28.32;;;;;;;3.72;96.49;100493.23;1790337;80;21505;-58
2020/12/18 00:55:57;;;;;;;60.60;27.85;;;;;;;3.74;96.49;100492.81;1790420;80;21142;-58
2020/12/18 00:58:26;;;;;;;61.35;28.00;;;;;;;3.75;96.41;100491.97;1790531;80;21135;-58
2020/12/18 01:00:53;;;;;;;68.57;29.30;;;;;;;3.75;96.37;100489.39;1790270;80;23587;-58
2020/12/18 01:03:22;;;;;;;63.90;27.37;;;;;;;3.75;96.36;100489.39;1790483;80;21080;-58
2020/12/18 01:05:51;;;;;;;67.37;29.10;;;;;;;3.75;96.34;100485.54;1790235;80;21106;-58
2020/12/18 01:08:18;;;;;;;60.73;27.50;;;;;;;3.76;96.26;100482.98;1790343;80;21080;-58
2020/12/18 01:10:47;;;;;;;68.22;29.60;;;;;;;3.76;96.21;100484.69;1790419;80;21139;-58
2020/12/18 01:13:15;;;;;;;67.95;28.45;;;;;;;3.76;96.32;100474.41;1790534;80;22054;-58
2020/12/18 01:15:43;;;;;;;67.08;27.48;;;;;;;3.77;96.32;100468.41;1790353;80;21154;-59
2020/12/18 01:18:13;;;;;;;62.65;27.02;;;;;;;3.79;96.20;100466.73;1790405;80;21068;-57
2020/12/18 01:20:42;;;;;;;59.42;26.48;;;;;;;3.81;96.09;100465.91;1790497;80;21500;-61
2020/12/18 01:23:09;;;;;;;63.17;27.98;;;;;;;3.82;95.96;100461.62;1790449;80;21863;-57
2020/12/18 01:25:39;;;;;;;62.73;28.70;;;;;;;3.81;95.86;100463.75;1790397;80;21135;-57
2020/12/18 01:28:07;;;;;;;62.98;25.75;;;;;;;3.76;95.73;100458.55;1790391;80;21111;-57
2020/12/18 01:30:35;;;;;;;50.88;24.52;;;;;;;3.74;95.61;100458.96;1790471;80;21119;-57
2020/12/18 01:33:03;;;;;;;49.67;23.62;;;;;;;3.70;95.32;100461.05;1790523;80;22178;-57
2020/12/18 01:35:31;;;;;;;58.75;25.32;;;;;;;3.65;95.26;100457.58;1790481;80;21493;-57
2020/12/18 01:38:01;;;;;;;49.67;24.40;;;;;;;3.61;95.28;100459.66;1790383;80;21350;-57
2020/12/18 01:40:29;;;;;;;49.53;23.67;;;;;;;3.59;95.34;100462.64;1790169;80;21520;-57
2020/12/18 01:42:59;;;;;;;39.03;19.15;;;;;;;3.60;95.40;100460.50;1790425;80;21096;-57
2020/12/18 01:45:27;;;;;;;38.55;19.32;;;;;;;3.58;95.01;100457.92;1790502;80;21568;-57
2020/12/18 01:47:57;;;;;;;34.33;18.05;;;;;;;3.51;94.57;100449.70;1790384;80;21123;-57
2020/12/18 01:50:25;;;;;;;37.65;19.55;;;;;;;3.47;94.40;100459.48;1790504;80;21360;-57
2020/12/18 01:52:54;;;;;;;33.60;17.67;;;;;;;3.43;94.38;100460.73;1790321;80;21198;-58
2020/12/18 01:55:26;;;;;;;37.15;20.00;;;;;;;3.39;94.39;100458.95;1789782;80;21147;-58
2020/12/18 01:57:55;;;;;;;36.60;19.17;;;;;;;3.34;94.46;100450.77;1790301;80;21119;-57
2020/12/18 02:00:24;;;;;;;32.75;18.37;;;;;;;3.35;94.63;100455.49;1790204;80;21209;-57
2020/12/18 02:02:53;;;;;;;33.40;18.07;;;;;;;3.34;94.64;100446.06;1787416;80;23612;-57
2020/12/18 02:05:25;;;;;;;35.10;18.77;;;;;;;3.35;94.70;100447.78;1785841;80;21138;-57
2020/12/18 02:08:02;;;;;;;32.30;18.80;;;;;;;3.36;94.70;100440.51;1790297;80;21520;-59
2020/12/18 02:10:49;;;;;;;35.03;19.82;;;;;;;3.38;94.70;100443.95;1790386;80;21123;-58
2020/12/18 02:13:17;;;;;;;37.17;19.82;;;;;;;3.39;94.74;100440.95;1790499;80;21107;-58
2020/12/18 02:15:45;;;;;;;37.67;20.05;;;;;;;3.40;94.81;100438.83;1790307;80;21639;-61
2020/12/18 02:18:22;;;;;;;29.85;17.30;;;;;;;3.40;94.81;100430.72;1790428;80;21138;-58
2020/12/18 02:20:51;;;;;;;33.45;18.52;;;;;;;3.38;94.74;100428.53;1790316;80;21067;-58
2020/12/18 02:23:19;;;;;;;32.58;18.67;;;;;;;3.39;94.80;100434.11;1790426;80;21072;-58
2020/12/18 02:26:08;;;;;;;32.83;18.35;;;;;;;3.41;94.90;100435.44;1790490;80;21563;-58
2020/12/18 02:28:43;;;;;;;31.65;19.05;;;;;;;3.42;95.00;100436.73;1790211;80;21283;-58
2020/12/18 02:31:11;;;;;;;34.50;19.27;;;;;;;3.42;94.96;100435.45;1790414;80;21139;-58
2020/12/18 02:33:41;;;;;;;32.25;18.45;;;;;;;3.43;94.84;100438.88;1790379;80;21068;-58
2020/12/18 02:36:12;;;;;;;30.90;17.80;;;;;;;3.41;94.87;100429.02;1790088;80;21221;-58
2020/12/18 02:38:42;;;;;;;33.08;18.45;;;;;;;3.41;94.82;100431.16;1790351;80;21069;-58
2020/12/18 02:41:10;;;;;;;33.80;19.52;;;;;;;3.39;94.77;100431.53;1790398;80;21374;-58
2020/12/18 02:43:51;;;;;;;30.82;17.62;;;;;;;3.41;94.85;100435.02;1790214;80;21995;-58
2020/12/18 02:46:19;;;;;;;32.95;18.42;;;;;;;3.40;94.72;100434.58;1790530;80;21060;-58
2020/12/18 02:48:50;;;;;;;33.55;17.85;;;;;;;3.38;94.68;100435.38;1790533;80;21068;-59
2020/12/18 02:51:22;;;;;;;36.75;19.05;;;;;;;3.34;94.78;100430.22;1790583;80;21080;-58
2020/12/18 02:53:52;;;;;;;33.53;18.15;;;;;;;3.36;94.96;100430.23;1788302;80;21199;-58
2020/12/18 02:56:27;;;;;;;30.90;17.07;;;;;;;3.40;94.99;100427.26;1790706;80;21162;-58
2020/12/18 02:59:03;;;;;;;29.30;16.77;;;;;;;3.40;94.97;100424.30;1771507;80;21739;-58
2020/12/18 03:01:31;;;;;;;28.02;16.55;;;;;;;3.38;94.66;100423.81;1790447;80;21071;-57
2020/12/18 03:04:00;;;;;;;29.37;17.12;;;;;;;3.34;94.67;100422.93;1790611;80;21485;-58
2020/12/18 03:06:30;;;;;;;30.88;17.75;;;;;;;3.33;94.74;100416.93;1746212;80;21278;-58
2020/12/18 03:08:58;;;;;;;26.42;16.07;;;;;;;3.31;94.72;100422.88;1790215;80;21139;-58
2020/12/18 03:11:26;;;;;;;29.23;17.65;;;;;;;3.28;94.86;100421.56;1790542;80;21123;-58
2020/12/18 03:13:54;;;;;;;26.57;16.65;;;;;;;3.27;94.84;100426.27;1790407;80;21175;-58
2020/12/18 03:16:23;;;;;;;27.85;16.17;;;;;;;3.26;94.89;100424.12;1790626;80;21080;-58
2020/12/18 03:18:56;;;;;;;32.00;17.10;;;;;;;3.28;95.01;100436.98;1790587;80;22230;-57
2020/12/18 03:21:24;;;;;;;26.65;16.62;;;;;;;3.28;95.06;100435.70;1790368;80;21183;-58
2020/12/18 03:24:03;;;;;;;25.60;16.48;;;;;;;3.27;95.02;100422.41;1752458;81;21103;-58
2020/12/18 03:26:47;;;;;;;26.48;16.00;;;;;;;3.26;94.98;100425.83;1752543;81;21154;-57
2020/12/18 03:29:17;;;;;;;24.07;16.02;;;;;;;3.29;95.08;100430.99;1752567;81;21156;-59
2020/12/18 03:31:46;;;;;;;26.40;15.85;;;;;;;3.29;94.97;100425.85;1752634;81;21247;-57
2020/12/18 03:34:13;;;;;;;25.52;15.95;;;;;;;3.29;94.94;100430.56;1752383;81;21148;-57
2020/12/18 03:36:46;;;;;;;24.45;15.65;;;;;;;3.28;94.98;100426.70;1752500;81;21595;-57
2020/12/18 03:39:13;;;;;;;27.82;15.38;;;;;;;3.27;94.95;100430.98;1752597;81;21152;-57
2020/12/18 03:41:45;;;;;;;28.92;16.57;;;;;;;3.28;94.97;100425.41;1752668;81;21139;-57
2020/12/18 03:44:14;;;;;;;26.05;16.42;;;;;;;3.27;94.99;100425.84;1752571;81;21364;-58
2020/12/18 03:46:42;;;;;;;24.20;15.83;;;;;;;3.26;94.89;100428.39;1752617;81;21572;-58
2020/12/18 03:49:12;;;;;;;23.30;15.20;;;;;;;3.25;94.83;100430.50;1752484;81;21199;-57
2020/12/18 03:51:44;;;;;;;25.23;14.83;;;;;;;3.21;94.83;100433.89;1752567;81;21639;-57
2020/12/18 03:54:14;;;;;;;23.22;15.25;;;;;;;3.19;94.96;100433.02;1752526;81;21155;-57
2020/12/18 03:56:52;;;;;;;;;;;;;;;3.21;95.06;100432.60;1850302;76;22707;-60
2020/12/18 03:59:25;;;;;;;25.88;14.73;;;;;;;3.17;95.19;100428.25;1813365;79;20232;-57
2020/12/18 04:01:57;;;;;;;26.60;16.25;;;;;;;3.17;95.24;100429.11;1777760;79;22068;-57
2020/12/18 04:04:25;;;;;;;24.67;14.80;;;;;;;3.17;95.21;100430.82;1818096;79;21541;-57
2020/12/18 04:06:54;;;;;;;22.85;14.93;;;;;;;3.18;95.24;100432.16;1818096;79;21096;-57
2020/12/18 04:09:22;;;;;;;26.17;16.40;;;;;;;3.17;95.19;100430.40;1818148;79;21444;-59
2020/12/18 04:11:52;;;;;;;22.17;13.98;;;;;;;3.18;95.24;100424.45;1815790;79;21085;-59
2020/12/18 04:14:24;;;;;;;23.00;14.63;;;;;;;3.17;95.27;100423.11;1817546;79;22219;-59
2020/12/18 04:16:53;;;;;;;22.85;13.65;;;;;;;3.17;95.21;100424.39;1816807;79;21175;-61
2020/12/18 04:19:21;;;;;;;20.82;14.87;;;;;;;3.19;95.22;100420.17;1818155;79;21034;-57
2020/12/18 04:21:49;;;;;;;22.90;14.80;;;;;;;3.20;95.33;100416.75;1818140;79;21053;-57
2020/12/18 04:24:19;;;;;;;25.20;14.75;;;;;;;3.19;95.29;100424.02;1815801;79;21072;-57
2020/12/18 04:26:47;;;;;;;25.72;14.73;;;;;;;3.18;95.18;100423.58;1818155;79;21198;-57
2020/12/18 04:29:16;;;;;;;23.40;15.05;;;;;;;3.12;95.26;100421.79;1817906;79;21164;-57
2020/12/18 04:31:45;;;;;;;25.60;14.85;;;;;;;3.12;95.38;100419.64;1818089;79;21116;-57
2020/12/18 04:34:13;;;;;;;22.82;14.90;;;;;;;3.12;95.42;100417.08;1818023;78;21140;-57
2020/12/18 04:37:00;;;;;;;25.95;15.25;;;;;;;3.12;95.58;100418.36;1818071;79;21112;-59
2020/12/18 04:39:30;;;;;;;25.25;13.98;;;;;;;3.14;95.73;100419.23;1813427;79;22262;-59
2020/12/18 04:41:57;;;;;;;23.22;14.35;;;;;;;3.16;95.63;100422.67;1817999;78;21998;-60
2020/12/18 04:44:25;;;;;;;25.50;15.53;;;;;;;3.16;95.64;100431.25;1818075;79;21100;-59
2020/12/18 04:46:55;;;;;;;28.87;16.45;;;;;;;3.18;95.66;100426.16;1817405;79;21132;-62
2020/12/18 04:49:23;;;;;;;24.75;15.60;;;;;;;3.18;95.71;100421.02;1818104;79;21038;-59
2020/12/18 04:51:53;;;;;;;23.70;13.93;;;;;;;3.19;95.72;100422.73;1786272;79;21537;-58
2020/12/18 04:54:27;;;;;;;23.22;13.88;;;;;;;3.20;95.61;100417.61;1815825;79;21121;-59
2020/12/18 04:56:56;;;;;;;25.12;14.35;;;;;;;3.17;95.44;100417.55;1823533;78;21569;-60
2020/12/18 04:59:26;;;;;;;22.02;15.25;;;;;;;3.14;95.40;100414.09;1795731;78;21573;-58
2020/12/18 05:02:07;;;;;;;24.00;14.95;;;;;;;3.11;95.37;100416.64;1798454;78;21939;-59
2020/12/18 05:04:41;;;;;;;22.05;14.43;;;;;;;3.10;95.49;100421.30;1824623;78;21399;-59
2020/12/18 05:07:17;;;;;;;26.77;15.23;;;;;;;3.09;95.50;100417.02;1784780;78;21187;-59
2020/12/18 05:09:54;;;;;;;24.55;14.60;;;;;;;3.07;95.48;100420.85;1823952;78;21135;-59
2020/12/18 05:12:23;;;;;;;29.80;17.15;;;;;;;3.08;95.58;100420.43;1819699;78;21136;-59
2020/12/18 05:14:51;;;;;;;26.57;16.35;;;;;;;3.09;95.70;100424.30;1824103;78;21036;-59
2020/12/18 05:17:20;;;;;;;25.72;16.23;;;;;;;3.11;95.72;100418.78;1822308;78;21380;-59
2020/12/18 05:19:50;;;;;;;26.87;15.65;;;;;;;3.11;95.63;100417.92;1824076;78;21063;-59
2020/12/18 05:22:37;;;;;;;27.45;16.67;;;;;;;3.11;95.62;100422.63;1778371;78;21141;-59
2020/12/18 05:25:08;;;;;;;30.77;17.12;;;;;;;3.13;95.67;100420.94;1817279;78;21548;-59
2020/12/18 05:27:41;;;;;;;32.48;17.30;;;;;;;3.14;95.71;100421.80;1824005;78;21116;-59
2020/12/18 05:30:09;;;;;;;26.07;15.88;;;;;;;3.13;95.70;100422.65;1794867;78;21391;-59
2020/12/18 05:32:37;;;;;;;28.15;17.25;;;;;;;3.14;95.67;100426.94;1823953;78;21132;-59
2020/12/18 05:35:06;;;;;;;29.70;17.27;;;;;;;3.15;95.69;100422.23;1817974;78;21143;-59
2020/12/18 05:37:49;;;;;;;29.27;16.42;;;;;;;3.15;95.67;100420.53;1726762;83;21163;-59
2020/12/18 05:40:21;;;;;;;27.85;17.17;;;;;;;3.17;95.72;100425.69;1726665;83;21148;-59
2020/12/18 05:43:14;;;;;;;;;;;;;;;3.22;95.67;100422.77;1893064;76;22624;-59
2020/12/18 05:45:44;;;;;;;27.90;16.70;;;;;;;3.17;95.59;100432.97;1856009;77;20214;-59
2020/12/18 05:48:30;;;;;;;28.90;16.70;;;;;;;3.17;95.62;100426.97;1797615;79;21319;-59
2020/12/18 05:51:08;;;;;;;;;;;;;;;3.22;95.58;100433.04;1893051;76;22603;-59
2020/12/18 05:53:36;;;;;;;29.42;16.70;;;;;;;3.18;95.61;100433.86;1861061;77;20225;-60
2020/12/18 05:56:29;;;;;;;31.40;17.02;;;;;;;3.18;95.60;100442.85;1859508;77;21355;-59
2020/12/18 05:59:14;;;;;;;26.10;16.27;;;;;;;3.18;95.53;100442.43;1860623;77;21385;-63
2020/12/18 06:01:46;;;;;;;29.63;17.45;;;;;;;3.15;95.34;100438.94;1857714;77;21100;-60
2020/12/18 06:04:30;;;;;;;26.45;15.63;;;;;;;3.15;95.26;100446.64;1826205;78;21231;-59
2020/12/18 06:06:58;;;;;;;23.50;15.40;;;;;;;3.12;95.20;100443.63;1826425;78;21149;-58
2020/12/18 06:09:45;;;;;;;29.92;16.45;;;;;;;3.10;95.09;100443.14;1833315;77;22072;-59
2020/12/18 06:12:13;;;;;;;24.27;15.65;;;;;;;3.01;94.69;100443.87;1852478;77;21560;-57
2020/12/18 06:14:42;;;;;;;29.45;17.00;;;;;;;2.93;94.80;100450.62;1860856;77;21123;-58
2020/12/18 06:17:12;;;;;;;24.43;15.48;;;;;;;2.88;95.01;100450.99;1857807;77;21146;-58
2020/12/18 06:19:50;;;;;;;29.85;17.17;;;;;;;2.87;95.31;100451.41;1848433;77;21184;-59
2020/12/18 06:22:20;;;;;;;29.42;17.98;;;;;;;2.87;95.54;100452.70;1851672;77;22295;-59
2020/12/18 06:24:53;;;;;;;27.02;17.42;;;;;;;2.87;95.66;100455.27;1840999;76;21125;-59
2020/12/18 06:27:22;;;;;;;30.80;17.50;;;;;;;2.86;95.61;100452.65;1783439;77;21526;-59
2020/12/18 06:30:04;;;;;;;30.88;18.92;;;;;;;2.84;95.66;100444.93;1857933;76;21081;-59
2020/12/18 06:32:52;;;;;;;30.88;17.87;;;;;;;2.82;95.68;100456.03;1741995;81;21199;-59
2020/12/18 06:35:39;;;;;;;36.77;22.13;;;;;;;2.80;95.76;100459.87;1850545;75;29194;-58
2020/12/18 06:38:20;;;;;;;43.48;23.83;;;;;;;2.73;95.68;100453.77;1742214;81;21235;-59
2020/12/18 06:41:24;;;;;;;46.58;25.60;;;;;;;2.69;95.41;100453.69;1745486;81;21773;-58
2020/12/18 06:43:59;;;;;;;42.60;24.35;;;;;;;2.64;95.07;100460.44;1722740;82;21182;-58
2020/12/18 06:46:29;;;;;;;46.83;24.98;;;;;;;2.59;95.10;100461.67;1760234;79;21120;-59
2020/12/18 06:49:17;;;;;;;49.75;27.90;;;;;;;2.56;95.20;100462.03;1742949;81;21132;-58
2020/12/18 06:52:03;;;;;;;47.17;27.07;;;;;;;2.53;95.14;100462.84;1814724;79;21077;-59
2020/12/18 06:54:57;;;;;;;45.70;25.45;;;;;;;2.52;95.02;100463.70;1800299;79;21366;-60
2020/12/18 06:57:26;;;;;;;45.20;25.17;;;;;;;2.50;94.61;100462.39;1781145;80;21196;-58
2020/12/18 07:00:25;;;;;;;37.65;22.80;;;;;;;2.51;94.59;100459.41;1795730;79;21101;-58
2020/12/18 07:02:54;;;;;;;41.13;23.25;;;;;;;2.54;94.07;100461.14;1786240;79;21156;-59
2020/12/18 07:05:42;;;;;;;41.48;24.45;;;;;;;2.52;94.06;100462.41;1742749;82;21073;-58
2020/12/18 07:08:13;;;;;;;48.38;26.62;;;;;;;2.52;94.23;100457.70;1730338;83;21372;-59
2020/12/18 07:10:46;;;;;;;46.55;26.55;;;;;;;2.54;94.26;100462.43;1755326;81;21081;-60
2020/12/18 07:13:15;;;;;;;45.35;26.60;;;;;;;2.57;94.31;100467.59;1729845;80;21181;-60
2020/12/18 07:15:50;;;;;;;50.03;27.35;;;;;;;2.62;94.37;100468.13;1785119;80;21064;-60
2020/12/18 07:18:31;;;;;;;46.55;24.85;;;;;;;2.66;94.30;100460.07;1785144;80;21120;-57
2020/12/18 07:21:01;;;;;;;43.95;26.02;;;;;;;2.71;94.15;100460.98;1840224;77;22211;-58
2020/12/18 07:23:31;;;;;;;42.95;25.10;;;;;;;2.75;94.01;100456.36;1772618;80;21196;-58
2020/12/18 07:25:59;;;;;;;41.30;23.50;;;;;;;2.79;93.87;100464.53;1754682;80;21188;-59
2020/12/18 07:28:30;;;;;;;43.02;24.85;;;;;;;2.84;93.74;100468.47;1755083;81;21581;-60
2020/12/18 07:31:00;;;;;;;44.73;24.05;;;;;;;2.85;93.60;100468.48;1761518;80;21196;-59
2020/12/18 07:33:31;;;;;;;41.75;23.02;;;;;;;2.91;93.50;100473.72;1753487;81;21252;-58
2020/12/18 07:36:03;;;;;;;45.67;25.05;;;;;;;2.94;93.15;100469.89;1756634;80;21200;-57
2020/12/18 07:38:35;;;;;;;42.17;24.50;;;;;;;2.95;92.87;100471.65;1787015;80;21661;-57
2020/12/18 07:41:14;;;;;;;45.43;26.02;;;;;;;2.97;92.96;100467.39;1755549;81;21262;-58
2020/12/18 07:43:46;;;;;;;37.75;21.90;;;;;;;3.00;92.75;100467.84;1786829;80;21121;-57
2020/12/18 07:46:19;;;;;;;39.50;22.02;;;;;;;2.99;92.52;100465.70;1726608;81;23683;-57
2020/12/18 07:48:51;;;;;;;37.98;22.60;;;;;;;3.00;92.46;100467.84;1734471;81;21097;-57
2020/12/18 07:51:25;;;;;;;39.50;22.73;;;;;;;2.97;92.29;100469.96;1731059;82;21176;-58
2020/12/18 07:53:57;;;;;;;38.50;23.27;;;;;;;2.97;92.31;100469.96;1803802;78;21172;-59
2020/12/18 07:56:26;;;;;;;39.83;22.67;;;;;;;2.98;92.17;100472.11;1807767;78;21171;-57
2020/12/18 07:58:59;;;;;;;35.98;21.27;;;;;;;2.97;92.25;100472.53;1791519;78;22108;-61
2020/12/18 08:01:31;;;;;;;36.20;21.70;;;;;;;2.96;92.14;100470.80;1727215;81;21805;-57
2020/12/18 08:04:11;;;;;;;37.03;21.60;;;;;;;2.96;92.16;100470.80;1750849;80;21141;-60
2020/12/18 08:06:42;;;;;;;34.73;20.97;;;;;;;2.96;92.18;100468.66;1787666;78;21157;-59
2020/12/18 08:09:13;;;;;;;42.80;22.90;;;;;;;2.97;92.38;100477.66;1781766;78;21116;-59
2020/12/18 08:11:50;;;;;;;39.42;22.93;;;;;;;3.01;92.44;100470.85;1782985;79;21200;-58
2020/12/18 08:14:15;;;;;;;35.33;22.32;;;;;;;3.06;92.43;100470.51;1795534;78;21224;-59
2020/12/18 08:16:44;;;;;;;37.33;22.32;;;;;;;3.06;92.14;100470.09;1727258;81;21261;-60
2020/12/18 08:19:13;;;;;;;37.63;22.27;;;;;;;3.06;92.24;100474.36;1740142;80;21204;-60
2020/12/18 08:21:46;;;;;;;41.50;23.55;;;;;;;3.08;92.33;100480.38;1785977;78;21129;-60
2020/12/18 08:24:35;;;;;;;40.08;23.70;;;;;;;3.12;92.40;100480.87;1793729;78;21208;-59
2020/12/18 08:27:17;;;;;;;40.73;23.40;;;;;;;3.15;92.37;100482.19;1728455;80;21101;-59
2020/12/18 08:29:47;;;;;;;39.55;23.20;;;;;;;3.16;92.24;100480.48;1731659;80;21597;-59
2020/12/18 08:32:24;;;;;;;46.50;26.12;;;;;;;3.16;92.27;100485.63;1788914;79;21452;-59
2020/12/18 08:35:00;;;;;;;42.60;26.25;;;;;;;3.13;92.22;100483.89;1785114;78;21577;-61
2020/12/18 08:37:29;;;;;;;43.17;25.82;;;;;;;3.13;92.26;100487.73;1785294;78;21429;-60
2020/12/18 08:39:57;;;;;;;45.43;25.27;;;;;;;3.13;92.27;100492.02;1794497;79;21169;-61
2020/12/18 08:42:26;;;;;;;41.95;24.98;;;;;;;3.11;92.37;100489.85;1791700;78;21173;-62
2020/12/18 08:44:54;;;;;;;46.02;25.72;;;;;;;3.11;92.41;100491.14;1789323;78;21074;-61
2020/12/18 08:47:26;;;;;;;45.48;25.60;;;;;;;3.09;92.41;100489.80;1775371;79;21170;-61
2020/12/18 08:49:56;;;;;;;40.30;24.47;;;;;;;3.08;92.46;100488.50;1784625;79;21181;-59
2020/12/18 08:52:26;;;;;;;41.25;24.10;;;;;;;3.12;92.61;100495.01;1796770;79;21176;-59
2020/12/18 08:55:07;;;;;;;44.30;25.62;;;;;;;3.15;92.51;100499.31;1794191;78;21149;-60
2020/12/18 08:57:39;;;;;;;38.05;24.25;;;;;;;3.15;92.54;100504.03;1781563;78;21041;-59
2020/12/18 09:00:20;;;;;;;43.98;25.12;;;;;;;3.15;92.51;100500.60;1725144;80;21208;-60
2020/12/18 09:02:58;;;;;;;43.00;24.32;;;;;;;3.13;92.60;100489.45;1786454;79;21359;-59
2020/12/18 09:05:34;;;;;;;43.90;26.05;;;;;;;3.20;92.98;100495.98;1791871;79;21243;-60
2020/12/18 09:08:16;;;;;;;50.00;28.65;;;;;;;3.27;93.04;100494.36;1789352;79;21179;-59
2020/12/18 09:10:47;;;;;;;44.42;25.82;;;;;;;3.33;93.00;100498.30;1774654;79;21180;-58
2020/12/18 09:13:24;;;;;;;38.90;23.22;;;;;;;3.38;92.88;100499.21;1779901;79;21127;-57
2020/12/18 09:16:05;;;;;;;41.53;23.83;;;;;;;3.42;92.73;100498.42;1781885;79;21200;-56
2020/12/18 09:18:36;;;;;;;40.58;24.80;;;;;;;3.41;92.46;100493.27;1796503;78;21172;-57
2020/12/18 09:21:15;;;;;;;43.08;25.60;;;;;;;3.35;92.54;100496.61;1787280;78;21100;-56
2020/12/18 09:23:46;;;;;;;71.72;36.68;;;;;;;3.33;92.71;100495.31;1787677;78;21594;-57
2020/12/18 09:26:28;;;;;;;81.37;40.83;;;;;;;3.32;92.80;100496.16;1790532;78;21558;-59
2020/12/18 09:28:57;;;;;;;58.42;32.90;;;;;;;3.32;92.80;100494.87;1785875;78;21353;-58
2020/12/18 09:31:26;;;;;;;53.23;31.30;;;;;;;3.33;93.08;100492.74;1785324;78;21184;-58
2020/12/18 09:33:54;;;;;;;50.58;29.12;;;;;;;3.34;93.15;100500.03;1784478;78;21117;-57
2020/12/18 09:36:22;;;;;;;52.58;30.48;;;;;;;3.31;93.35;100493.12;1779547;78;21656;-58
2020/12/18 09:38:52;;;;;;;48.98;29.50;;;;;;;3.30;93.52;100494.39;1783259;78;21343;-58
2020/12/18 09:41:22;;;;;;;57.03;32.20;;;;;;;3.29;93.79;100497.80;1785521;78;21366;-58
2020/12/18 09:43:50;;;;;;;56.13;32.60;;;;;;;3.30;93.99;100495.67;1790032;79;21196;-57
2020/12/18 09:46:18;;;;;;;60.88;34.08;;;;;;;3.34;94.29;100494.47;1788465;79;21180;-59
2020/12/18 09:48:47;;;;;;;48.10;28.75;;;;;;;3.39;94.45;100494.51;1792860;79;21168;-58
2020/12/18 09:51:16;;;;;;;49.00;27.73;;;;;;;3.43;94.60;100498.00;1789002;79;21089;-58
2020/12/18 09:53:46;;;;;;;52.35;30.80;;;;;;;3.42;94.72;100494.57;1784144;79;21319;-58
2020/12/18 09:56:15;;;;;;;49.23;27.25;;;;;;;3.42;94.96;100497.56;1716750;81;21114;-59
2020/12/18 09:58:44;;;;;;;55.58;29.98;;;;;;;3.44;95.13;100498.02;1756385;81;21180;-57
2020/12/18 10:01:17;;;;;;;51.13;30.77;;;;;;;3.46;95.35;100497.60;1738140;82;21096;-58
2020/12/18 10:03:46;;;;;;;59.20;32.28;;;;;;;3.45;95.36;100495.88;1805436;79;21105;-57
2020/12/18 10:06:27;;;;;;;58.75;31.50;;;;;;;3.44;95.42;100501.01;1791607;79;21355;-56
2020/12/18 10:08:57;;;;;;;60.35;31.85;;;;;;;3.41;95.55;100504.84;1791131;78;21121;-57
2020/12/18 10:11:33;;;;;;;57.03;30.37;;;;;;;3.43;95.97;100500.14;1790866;79;21101;-58
2020/12/18 10:14:04;;;;;;;61.88;31.82;;;;;;;3.43;95.97;100500.14;1790242;79;21118;-57
2020/12/18 10:16:32;;;;;;;58.08;30.90;;;;;;;3.46;96.13;100494.17;1799088;79;21160;-58
2020/12/18 10:18:59;;;;;;;54.27;29.92;;;;;;;3.52;96.17;100491.27;1779214;79;21432;-61
2020/12/18 10:21:33;;;;;;;65.52;36.28;;;;;;;3.53;96.02;100487.84;1783846;79;22185;-57
2020/12/18 10:24:00;;;;;;;71.05;35.68;;;;;;;3.49;95.88;100488.66;1797889;78;21082;-58
2020/12/18 10:26:28;;;;;;;68.87;33.95;;;;;;;3.43;96.05;100481.30;1783802;79;21212;-58
2020/12/18 10:28:56;;;;;;;65.78;34.45;;;;;;;3.41;96.29;100488.98;1795054;78;21747;-57
2020/12/18 10:31:24;;;;;;;67.67;34.40;;;;;;;3.41;96.45;100484.27;1791252;78;21343;-57
2020/12/18 10:33:52;;;;;;;81.55;39.80;;;;;;;3.48;96.71;100489.94;1787395;78;21164;-57
2020/12/18 10:36:20;;;;;;;88.95;44.08;;;;;;;3.50;96.70;100491.67;1796181;78;21190;-59
2020/12/18 10:38:48;;;;;;;74.40;38.73;;;;;;;3.51;96.56;100493.39;1783744;78;21159;-57
2020/12/18 10:41:16;;;;;;;70.57;36.15;;;;;;;3.55;96.56;100491.32;1802007;78;21167;-57
2020/12/18 10:43:44;;;;;;;70.62;36.05;;;;;;;3.60;96.61;100485.80;1806317;78;21347;-57
2020/12/18 10:46:12;;;;;;;70.62;36.63;;;;;;;3.65;96.42;100495.28;1801071;78;21171;-57
2020/12/18 10:48:40;;;;;;;68.17;34.98;;;;;;;3.67;96.26;100498.73;1806707;78;21187;-57
2020/12/18 10:51:09;;;;;;;88.95;44.88;;;;;;;3.70;96.34;100497.47;1799995;78;21191;-57
2020/12/18 10:53:39;;;;;;;135.05;68.80;;;;;;;3.72;96.10;100491.95;1787760;78;21183;-58
2020/12/18 10:56:09;;;;;;;121.95;62.58;;;;;;;3.71;96.01;100499.22;1802517;78;21201;-56
2020/12/18 10:58:43;;;;;;;105.20;52.30;;;;;;;3.70;96.10;100494.47;1796331;78;21164;-56
2020/12/18 11:01:18;;;;;;;93.30;44.60;;;;;;;3.70;96.12;100493.61;1804052;78;21586;-58
2020/12/18 11:03:46;;;;;;;78.78;38.95;;;;;;;3.69;96.05;100488.89;1798407;78;21143;-58
2020/12/18 11:06:14;;;;;;;73.33;37.75;;;;;;;3.70;96.00;100493.61;1796151;78;21161;-58
2020/12/18 11:08:43;;;;;;;73.40;37.38;;;;;;;3.70;96.06;100488.47;1788165;79;23159;-57
2020/12/18 11:11:15;;;;;;;85.80;42.73;;;;;;;3.74;96.10;100489.82;1790876;78;21219;-57
2020/12/18 11:13:43;;;;;;;92.05;45.73;;;;;;;3.77;96.05;100482.13;1795277;78;21092;-57
2020/12/18 11:16:11;;;;;;;142.55;74.22;;;;;;;3.82;95.95;100488.20;1787704;80;21131;-59
2020/12/18 11:18:41;;;;;;;86.82;44.42;;;;;;;3.83;95.68;100481.34;1787033;80;21167;-58
2020/12/18 11:21:09;;;;;;;86.10;42.93;;;;;;;3.84;95.76;100487.78;1787803;78;22109;-59
2020/12/18 11:23:42;;;;;;;88.40;43.78;;;;;;;3.84;95.60;100481.78;1787076;80;21140;-57
2020/12/18 11:26:11;;;;;;;82.92;38.42;;;;;;;3.80;95.56;100485.18;1803428;78;21210;-57
2020/12/18 11:28:41;;;;;;;80.62;39.18;;;;;;;3.79;95.43;100486.03;1818528;78;21184;-57
2020/12/18 11:31:10;;;;;;;77.32;36.88;;;;;;;3.75;95.43;100490.25;1819195;78;21143;-57
2020/12/18 11:33:40;;;;;;;80.62;36.93;;;;;;;3.75;95.57;100485.54;1819752;78;21558;-56
2020/12/18 11:36:08;;;;;;;85.72;37.70;;;;;;;3.75;95.56;100481.68;1815163;78;21172;-57
2020/12/18 11:38:40;;;;;;;85.17;37.75;;;;;;;3.75;95.68;100482.55;1818439;77;21199;-58